Time;durP1;ratioP1;P1;durP2;ratioP2;P2;SDS_P1;SDS_P2;PMS_P1;PMS_P2;Temp;Humidity;BMP_temperature;BMP_pressure;BME280_temperature;BME280_humidity;BME280_pressure;Samples;Min_cycle;Max_cycle;Signal;HPM_P1;HPM_P2
2022/05/08 05:32:30;;;;;;;7.88;4.63;;;;;;;12.64;100.00;98767.19;5053828;28;20386;-63
2022/05/08 05:34:55;;;;;;;9.48;5.90;;;;;;;12.68;100.00;98770.31;5035282;28;20037;-64
2022/05/08 05:37:21;;;;;;;8.30;4.97;;;;;;;12.69;100.00;98771.97;5006986;28;20320;-63
2022/05/08 05:39:46;;;;;;;7.95;5.47;;;;;;;12.75;100.00;98768.72;5021833;28;20162;-63
2022/05/08 05:42:11;;;;;;;8.57;5.22;;;;;;;12.77;100.00;98768.56;5018014;28;20037;-63
2022/05/08 05:44:38;;;;;;;7.47;4.95;;;;;;;12.75;100.00;98766.13;5015332;28;20033;-63
2022/05/08 05:49:48;;;;;;;9.40;5.32;;;;;;;12.92;100.00;98776.63;5027103;28;20668;-62
2022/05/08 05:52:13;;;;;;;10.77;5.45;;;;;;;13.03;100.00;98778.97;5009715;28;20017;-62
2022/05/08 05:54:38;;;;;;;7.43;4.38;;;;;;;12.96;100.00;98770.97;5030087;28;20519;-63
2022/05/08 05:57:04;;;;;;;6.80;4.20;;;;;;;13.03;100.00;98778.97;5035570;28;20048;-63
2022/05/08 05:59:29;;;;;;;9.13;4.40;;;;;;;13.07;100.00;98786.34;5019064;28;20084;-62
2022/05/08 06:01:55;;;;;;;9.00;4.18;;;;;;;13.06;100.00;98779.47;5021544;28;20029;-63
2022/05/08 06:04:20;;;;;;;6.50;4.00;;;;;;;13.27;100.00;98788.72;5016066;28;20055;-63
2022/05/08 06:06:46;;;;;;;6.70;4.07;;;;;;;13.31;100.00;98781.41;5008811;28;20025;-63
2022/05/08 06:09:11;;;;;;;7.13;4.18;;;;;;;13.28;100.00;98785.13;5005249;28;20069;-62
2022/05/08 06:11:37;;;;;;;7.22;4.20;;;;;;;13.25;100.00;98788.03;5006132;28;20026;-63
2022/05/08 06:14:02;;;;;;;6.50;4.07;;;;;;;13.28;100.00;98790.34;5003956;28;20485;-63
2022/05/08 06:16:28;;;;;;;6.80;4.10;;;;;;;13.24;100.00;98781.19;5021065;28;20033;-63
2022/05/08 06:18:53;;;;;;;7.15;4.03;;;;;;;13.31;100.00;98786.66;5016965;28;20056;-64
2022/05/08 06:21:19;;;;;;;6.35;4.03;;;;;;;13.30;100.00;98785.78;5022997;28;20115;-63
2022/05/08 06:23:44;;;;;;;5.90;3.58;;;;;;;13.26;100.00;98784.47;5004327;28;20476;-62
2022/05/08 06:26:09;;;;;;;7.47;4.07;;;;;;;13.31;100.00;98784.03;5024069;28;20026;-62
2022/05/08 06:28:36;;;;;;;10.52;4.00;;;;;;;13.27;100.00;98786.09;5003088;28;20392;-63
2022/05/08 06:31:02;;;;;;;7.32;4.10;;;;;;;13.33;100.00;98793.34;5019829;28;20029;-63
2022/05/08 06:33:27;;;;;;;7.07;4.28;;;;;;;13.15;100.00;98758.63;5025542;28;20552;-63
2022/05/08 06:35:54;;;;;;;6.57;3.92;;;;;;;13.39;100.00;98794.50;5027187;28;20042;-63
2022/05/08 06:38:19;;;;;;;8.50;4.90;;;;;;;13.16;100.00;98748.03;5016935;28;20045;-63
2022/05/08 06:40:45;;;;;;;7.68;4.70;;;;;;;13.30;100.00;98769.28;5008562;28;20040;-62
2022/05/08 06:43:10;;;;;;;9.15;4.50;;;;;;;13.47;100.00;98797.16;5024755;28;20065;-63
2022/05/08 06:45:36;;;;;;;7.38;4.75;;;;;;;13.38;100.00;98793.69;5011106;28;20033;-63
2022/05/08 06:48:02;;;;;;;7.45;4.38;;;;;;;13.50;100.00;98796.81;5007655;28;20033;-63
2022/05/08 06:50:29;;;;;;;7.93;4.75;;;;;;;13.52;100.00;98792.25;5012682;28;20722;-62
2022/05/08 06:52:55;;;;;;;7.97;4.93;;;;;;;13.63;100.00;98791.13;5013464;28;20030;-63
2022/05/08 06:55:21;;;;;;;7.15;4.53;;;;;;;13.61;100.00;98785.25;5014725;28;20045;-63
2022/05/08 06:57:46;;;;;;;8.57;5.35;;;;;;;13.65;100.00;98797.00;5006378;28;20056;-61
2022/05/08 07:02:56;;;;;;;8.57;5.60;;;;;;;13.68;100.00;98809.75;5019140;28;20602;-63
2022/05/08 07:05:21;;;;;;;13.00;5.90;;;;;;;13.70;100.00;98807.81;5019993;28;20034;-63
2022/05/08 07:07:47;;;;;;;8.43;5.43;;;;;;;13.67;100.00;98813.34;4998774;28;20029;-63
2022/05/08 07:10:13;;;;;;;8.25;5.53;;;;;;;13.76;100.00;98812.41;5000552;28;20408;-63
2022/05/08 07:12:38;;;;;;;9.63;5.97;;;;;;;13.72;100.00;98810.25;5015968;28;20025;-62
2022/05/08 07:15:05;;;;;;;8.50;5.70;;;;;;;13.77;100.00;98811.41;5021111;28;20036;-63
2022/05/08 07:17:30;;;;;;;7.95;5.30;;;;;;;13.56;100.00;98769.22;5011513;28;20112;-63
2022/05/08 07:19:56;;;;;;;10.32;6.68;;;;;;;13.77;100.00;98810.59;4996521;28;20540;-62
2022/05/08 07:22:22;;;;;;;8.80;6.05;;;;;;;13.74;100.00;98811.72;4994031;28;20038;-63
2022/05/08 07:24:48;;;;;;;9.25;6.50;;;;;;;13.76;100.00;98815.03;5006072;28;20491;-63
2022/05/08 07:27:13;;;;;;;9.85;6.88;;;;;;;13.50;100.00;98767.25;5001115;28;20040;-64
2022/05/08 07:29:45;;;;;;;9.80;6.90;;;;;;;13.89;100.00;98817.16;5010560;28;20124;-63
2022/05/08 07:32:10;;;;;;;10.45;6.95;;;;;;;14.02;100.00;98822.72;5017334;28;20142;-62
2022/05/08 07:37:20;;;;;;;11.45;7.55;;;;;;;14.08;100.00;98815.22;5018672;28;20134;-63
2022/05/08 07:39:46;;;;;;;12.38;8.10;;;;;;;14.13;100.00;98810.34;5017103;28;20037;-63
2022/05/08 07:42:11;;;;;;;11.48;7.25;;;;;;;14.15;100.00;98817.03;4997922;28;20041;-62
2022/05/08 07:44:37;;;;;;;10.68;7.60;;;;;;;14.30;100.00;98811.16;4986556;28;20482;-63
2022/05/08 07:47:03;;;;;;;12.45;7.75;;;;;;;14.33;100.00;98814.25;4993133;28;20045;-63
2022/05/08 07:49:28;;;;;;;11.23;7.60;;;;;;;14.41;100.00;98814.25;5033830;28;20067;-63
2022/05/08 07:51:54;;;;;;;10.40;7.15;;;;;;;14.55;100.00;98825.84;5005636;28;20120;-63
2022/05/08 07:54:20;;;;;;;11.13;7.43;;;;;;;14.38;100.00;98788.44;5003790;28;20085;-63
2022/05/08 07:56:45;;;;;;;11.15;7.13;;;;;;;14.51;100.00;98834.19;5006927;28;20037;-63
2022/05/08 07:59:10;;;;;;;9.93;6.60;;;;;;;14.20;100.00;98785.97;5007420;28;20153;-63
2022/05/08 08:01:36;;;;;;;11.02;7.13;;;;;;;14.72;100.00;98826.69;4990201;28;20041;-63
2022/05/08 08:04:03;;;;;;;11.30;7.70;;;;;;;14.76;100.00;98827.16;5021267;28;20029;-63
2022/05/08 08:06:29;;;;;;;9.88;7.25;;;;;;;14.64;100.00;98829.31;5006242;28;20037;-63
2022/05/08 08:08:54;;;;;;;10.55;7.53;;;;;;;14.40;100.00;98827.47;5009105;28;20473;-63
2022/05/08 08:11:20;;;;;;;11.88;7.45;;;;;;;14.40;100.00;98841.41;5007993;28;20126;-63
2022/05/08 08:13:46;;;;;;;10.25;7.05;;;;;;;14.52;100.00;98838.44;4995662;28;20555;-63
2022/05/08 08:16:12;;;;;;;9.75;6.93;;;;;;;14.57;100.00;98836.16;5007201;28;20034;-63
2022/05/08 08:18:41;;;;;;;10.20;6.93;;;;;;;14.52;100.00;98838.44;5016955;28;20026;-62
2022/05/08 08:21:06;;;;;;;10.43;7.20;;;;;;;14.24;100.00;98783.84;5004022;28;20033;-63
2022/05/08 08:23:32;;;;;;;9.73;6.95;;;;;;;14.61;100.00;98827.03;5002812;28;20726;-63
2022/05/08 08:25:57;;;;;;;9.75;7.00;;;;;;;15.27;100.00;98848.63;5004643;28;20106;-63
2022/05/08 08:28:23;;;;;;;9.55;6.45;;;;;;;15.08;100.00;98854.28;5020626;28;20033;-63
2022/05/08 08:30:48;;;;;;;10.10;7.05;;;;;;;15.13;100.00;98847.53;4989954;28;20649;-63
2022/05/08 08:33:14;;;;;;;10.43;7.57;;;;;;;15.13;100.00;98852.78;4997580;28;20396;-63
2022/05/08 08:35:39;;;;;;;8.52;6.00;;;;;;;15.26;100.00;98846.19;5008477;28;20025;-63
2022/05/08 08:38:06;;;;;;;9.10;6.53;;;;;;;15.25;100.00;98845.38;5013965;28;20520;-63
2022/05/08 08:40:32;;;;;;;9.00;6.32;;;;;;;14.88;99.18;98814.56;5021603;28;20021;-63
2022/05/08 08:42:59;;;;;;;8.50;5.72;;;;;;;15.01;100.00;98853.31;5005537;28;20460;-63
2022/05/08 08:48:27;;;;;;;8.55;5.75;;;;;;;15.09;98.94;98855.88;5008262;28;20048;-63
2022/05/08 08:50:54;;;;;;;9.00;5.90;;;;;;;15.10;99.77;98847.88;4995456;28;20409;-63
2022/05/08 08:53:20;;;;;;;8.05;5.35;;;;;;;15.14;99.53;98864.88;5012697;28;20065;-63
2022/05/08 08:55:51;;;;;;;8.40;6.07;;;;;;;15.22;97.77;98857.97;5001758;28;20034;-63
2022/05/08 08:58:17;;;;;;;8.45;5.78;;;;;;;15.32;97.48;98863.84;5002219;28;20337;-63
2022/05/08 09:00:46;;;;;;;8.55;5.72;;;;;;;15.36;98.17;98860.72;5000698;28;20045;-62
2022/05/08 09:03:12;;;;;;;7.72;5.30;;;;;;;15.52;95.51;98859.84;4986765;28;20559;-63
2022/05/08 09:05:37;;;;;;;8.15;5.22;;;;;;;15.49;95.58;98841.81;5005462;28;20091;-63
2022/05/08 09:08:03;;;;;;;8.43;6.00;;;;;;;15.62;96.51;98858.81;5025547;28;20092;-63
2022/05/08 09:10:35;;;;;;;7.60;5.32;;;;;;;15.33;96.36;98831.41;5014881;28;20045;-63
2022/05/08 09:13:05;;;;;;;8.63;5.50;;;;;;;15.35;96.29;98832.06;5014358;28;20717;-63
2022/05/08 09:15:32;;;;;;;8.55;5.43;;;;;;;15.42;95.19;98821.72;4991447;28;20030;-63
2022/05/08 09:18:03;;;;;;;7.20;4.60;;;;;;;15.76;94.47;98858.13;4993407;28;20033;-64
2022/05/08 09:20:33;;;;;;;5.95;3.40;;;;;;;15.84;91.56;98863.31;4999061;28;20112;-63
2022/05/08 09:23:09;;;;;;;7.32;4.55;;;;;;;16.07;92.41;98862.53;4996948;28;20026;-63
2022/05/08 09:26:08;;;;;;;7.15;4.75;;;;;;;16.21;91.93;98858.34;4997874;28;20132;-63
2022/05/08 09:28:41;;;;;;;6.78;4.22;;;;;;;16.46;91.08;98851.91;4986450;28;20037;-63
2022/05/08 09:31:07;;;;;;;5.95;3.53;;;;;;;16.50;84.42;98850.59;5014469;28;20634;-63
2022/05/08 09:33:35;;;;;;;4.28;2.25;;;;;;;16.32;82.06;98850.88;5003568;28;20040;-63
2022/05/08 09:36:07;;;;;;;6.65;3.45;;;;;;;16.27;86.15;98853.22;5004808;28;20060;-63
2022/05/08 09:38:45;;;;;;;6.38;4.00;;;;;;;16.27;89.41;98853.22;5005649;28;20116;-63
2022/05/08 09:41:11;;;;;;;5.93;3.78;;;;;;;16.10;89.70;98849.91;5005156;28;20029;-63
2022/05/08 09:43:37;;;;;;;6.45;4.15;;;;;;;15.91;89.16;98851.16;5009373;28;20038;-63
2022/05/08 09:46:04;;;;;;;6.25;4.15;;;;;;;15.91;89.73;98855.59;5003674;28;20308;-63
2022/05/08 09:48:31;;;;;;;6.47;4.30;;;;;;;16.05;91.04;98846.16;5004245;28;20043;-63
2022/05/08 09:51:01;;;;;;;6.00;3.80;;;;;;;16.04;89.13;98845.31;4988251;28;20073;-64
2022/05/08 09:53:27;;;;;;;6.28;3.90;;;;;;;16.10;90.21;98839.41;4994699;28;20034;-63
2022/05/08 09:55:57;;;;;;;6.18;3.78;;;;;;;16.20;90.23;98833.09;5004563;28;20465;-63
2022/05/08 09:58:23;;;;;;;;;;;;;;;16.20;87.21;98843.59;4989144;28;20033;-63
2022/05/08 10:00:49;;;;;;;5.75;3.13;;;;;;;16.27;86.00;98855.03;5023531;28;19917;-63
2022/05/08 10:03:15;;;;;;;4.30;1.75;;;;;;;16.34;80.11;98827.91;5001755;28;20219;-63
2022/05/08 10:05:44;;;;;;;3.85;1.83;;;;;;;16.60;79.84;98841.66;5019892;28;20025;-63
2022/05/08 10:08:12;;;;;;;4.20;2.03;;;;;;;16.70;80.33;98829.91;4998359;28;20033;-63
2022/05/08 10:14:06;;;;;;;4.18;1.95;;;;;;;17.10;77.68;98840.19;5003622;28;20052;-63
2022/05/08 10:16:53;;;;;;;4.22;1.75;;;;;;;17.29;77.63;98841.47;5004700;28;20072;-63
2022/05/08 10:19:22;;;;;;;3.90;1.38;;;;;;;17.26;71.01;98800.56;5016829;28;20384;-64
2022/05/08 10:21:53;;;;;;;2.40;0.95;;;;;;;17.95;67.83;98838.81;5014529;28;20026;-63
2022/05/08 10:24:40;;;;;;;4.07;1.05;;;;;;;18.18;68.51;98825.50;5027445;28;20029;-63
2022/05/08 10:27:21;;;;;;;3.42;1.30;;;;;;;18.30;69.04;98830.25;5007979;28;20040;-64
2022/05/08 10:29:49;;;;;;;3.60;1.20;;;;;;;18.36;69.12;98826.84;4977908;28;20021;-63
2022/05/08 10:32:33;;;;;;;2.72;1.25;;;;;;;18.33;68.04;98825.41;5006121;28;20070;-63
2022/05/08 10:35:16;;;;;;;2.75;1.00;;;;;;;18.41;68.76;98824.47;5011356;28;20037;-63
2022/05/08 10:37:49;;;;;;;3.15;1.15;;;;;;;18.32;67.46;98804.53;5011223;28;20025;-63
2022/05/08 10:40:23;;;;;;;3.05;1.05;;;;;;;18.53;66.38;98824.78;5035484;28;20033;-63
2022/05/08 10:42:55;;;;;;;3.20;1.20;;;;;;;18.59;66.33;98830.06;5018641;28;20637;-64
2022/05/08 10:45:32;;;;;;;4.20;1.35;;;;;;;18.56;66.55;98830.47;5005618;28;20407;-64
2022/05/08 10:48:08;;;;;;;3.28;1.30;;;;;;;18.58;65.06;98836.34;5014568;28;20049;-64
2022/05/08 10:50:34;;;;;;;2.63;1.15;;;;;;;18.53;65.90;98838.75;5005844;28;20029;-64
2022/05/08 10:53:00;;;;;;;2.92;1.10;;;;;;;18.36;64.96;98805.78;5020064;28;20583;-63
2022/05/08 10:55:27;;;;;;;3.08;1.10;;;;;;;18.21;65.22;98793.50;5018097;28;20037;-64
2022/05/08 10:57:53;;;;;;;3.25;1.20;;;;;;;18.47;64.49;98833.41;5010796;28;20018;-64
2022/05/08 11:00:24;;;;;;;2.85;1.10;;;;;;;18.52;66.24;98829.19;4966920;28;20097;-64
2022/05/08 11:02:51;;;;;;;3.80;1.52;;;;;;;18.52;65.53;98834.47;5017275;28;20270;-64
2022/05/08 11:05:22;;;;;;;3.25;1.20;;;;;;;18.42;63.88;98828.72;4998764;28;20064;-64
2022/05/08 11:07:51;;;;;;;3.70;1.33;;;;;;;18.54;65.53;98840.34;4998992;28;20069;-64
2022/05/08 11:10:18;;;;;;;3.55;1.42;;;;;;;18.71;65.27;98833.00;5003067;28;20080;-64
2022/05/08 11:13:02;;;;;;;3.60;1.40;;;;;;;18.78;64.38;98831.22;5005925;28;20037;-64
2022/05/08 11:15:29;;;;;;;3.25;1.30;;;;;;;18.70;65.16;98822.66;5008657;28;20018;-64
2022/05/08 11:18:04;;;;;;;3.75;1.30;;;;;;;18.55;64.21;98802.50;5002525;28;20786;-64
2022/05/08 11:20:31;;;;;;;3.83;1.30;;;;;;;18.84;64.48;98834.94;5016249;28;20037;-64
2022/05/08 11:22:58;;;;;;;3.13;1.13;;;;;;;18.72;64.28;98839.09;5038592;28;20025;-64
2022/05/08 11:25:23;;;;;;;3.55;1.27;;;;;;;18.76;63.57;98842.94;4999513;28;20480;-63
2022/05/08 11:27:53;;;;;;;4.90;1.20;;;;;;;18.68;62.86;98835.22;5000119;28;20026;-64
2022/05/08 11:30:38;;;;;;;2.90;1.13;;;;;;;18.67;62.47;98844.91;5032551;28;20116;-63
2022/05/08 11:36:06;;;;;;;2.50;1.00;;;;;;;18.54;65.22;98850.06;5003564;28;20057;-64
2022/05/08 11:38:46;;;;;;;3.25;1.30;;;;;;;18.50;68.02;98857.53;5003394;28;20038;-64
2022/05/08 11:41:14;;;;;;;3.55;1.45;;;;;;;18.52;69.51;98858.16;5017539;28;20034;-64
2022/05/08 11:43:40;;;;;;;3.75;1.63;;;;;;;18.38;68.88;98862.50;5019432;28;20035;-63
2022/05/08 11:46:09;;;;;;;3.25;1.42;;;;;;;18.29;68.76;98857.56;5016706;28;20026;-64
2022/05/08 11:48:40;;;;;;;3.45;1.55;;;;;;;18.35;69.26;98855.00;5002567;28;20033;-64
2022/05/08 11:51:07;;;;;;;4.20;1.70;;;;;;;18.28;69.04;98856.75;5001494;28;20543;-64
2022/05/08 11:53:39;;;;;;;3.83;1.70;;;;;;;18.22;70.67;98853.06;5003478;28;20112;-63
2022/05/08 11:56:33;;;;;;;4.05;1.50;;;;;;;18.15;70.53;98856.63;5018585;28;20084;-64
2022/05/08 11:59:03;;;;;;;4.55;1.58;;;;;;;18.04;72.19;98850.84;5035359;28;20022;-63
2022/05/08 12:01:40;;;;;;;3.83;1.80;;;;;;;17.92;71.99;98852.31;4997699;28;20026;-63
2022/05/08 12:04:20;;;;;;;3.90;1.70;;;;;;;17.84;74.22;98855.88;4996229;28;20038;-64
2022/05/08 12:07:13;;;;;;;4.10;1.90;;;;;;;17.70;75.41;98861.97;4994928;28;20026;-64
2022/05/08 12:09:49;;;;;;;4.03;1.80;;;;;;;17.36;75.62;98816.06;5002617;28;20033;-63
2022/05/08 12:12:29;;;;;;;4.28;1.80;;;;;;;17.61;78.99;98852.56;5004906;28;20072;-64
2022/05/08 12:15:02;;;;;;;;;;;;;;;17.39;81.36;98860.38;4987768;28;20049;-63
2022/05/08 12:17:33;;;;;;;4.25;1.88;;;;;;;17.32;81.62;98851.59;5003345;28;19927;-63
2022/05/08 12:19:59;;;;;;;4.95;2.47;;;;;;;17.14;83.06;98849.34;4984177;28;20037;-63
2022/05/08 12:22:29;;;;;;;5.35;2.17;;;;;;;17.01;83.24;98859.66;4997460;28;20038;-63
2022/05/08 12:24:58;;;;;;;5.47;2.10;;;;;;;16.95;86.47;98855.13;5004606;28;20026;-63
2022/05/08 12:27:24;;;;;;;3.95;1.98;;;;;;;16.98;85.62;98860.03;5016016;28;20081;-64
2022/05/08 12:29:50;;;;;;;4.32;1.95;;;;;;;16.97;85.46;98861.81;5041262;28;20037;-64
2022/05/08 12:32:16;;;;;;;5.78;2.08;;;;;;;17.02;87.53;98863.91;5006198;28;20034;-64
2022/05/08 12:34:43;;;;;;;4.35;2.03;;;;;;;17.05;87.86;98859.13;5004791;28;20018;-65
2022/05/08 12:37:12;;;;;;;4.30;2.00;;;;;;;17.11;86.75;98865.47;5017371;28;20045;-64
2022/05/08 12:39:38;;;;;;;4.43;1.88;;;;;;;17.13;86.59;98860.84;5005158;28;20033;-65
2022/05/08 12:42:04;;;;;;;4.40;2.25;;;;;;;17.15;85.91;98855.41;5002916;28;20022;-65
2022/05/08 12:44:30;;;;;;;4.40;2.25;;;;;;;17.16;84.78;98857.88;5001443;28;20040;-65
2022/05/08 12:46:56;;;;;;;5.00;1.90;;;;;;;17.16;83.07;98864.91;5019957;28;20056;-65
2022/05/08 12:49:21;;;;;;;4.55;2.25;;;;;;;17.13;84.97;98860.03;5002079;28;20527;-65
2022/05/08 12:51:47;;;;;;;4.00;2.05;;;;;;;17.11;83.04;98862.84;5016821;28;20030;-65
2022/05/08 12:54:12;;;;;;;4.45;2.13;;;;;;;17.05;81.93;98856.50;5003028;28;20021;-64
2022/05/08 12:56:38;;;;;;;4.30;2.08;;;;;;;17.10;82.47;98864.66;5000822;28;20038;-65
2022/05/08 13:01:49;;;;;;;4.90;1.73;;;;;;;17.40;84.09;98862.00;5015276;28;20123;-64
2022/05/08 13:04:14;;;;;;;4.28;2.00;;;;;;;17.45;81.74;98874.59;5005209;28;20029;-64
2022/05/08 13:06:41;;;;;;;4.55;1.90;;;;;;;17.41;81.28;98858.41;5006113;28;20048;-65
2022/05/08 13:09:07;;;;;;;4.15;1.90;;;;;;;17.42;82.34;98833.72;5000187;28;20632;-64
2022/05/08 13:11:34;;;;;;;3.83;1.58;;;;;;;17.70;79.48;98867.22;5001638;28;20033;-64
2022/05/08 13:14:00;;;;;;;3.88;1.77;;;;;;;17.85;79.96;98869.84;4994977;28;20036;-64
2022/05/08 13:16:25;;;;;;;3.65;1.58;;;;;;;17.91;76.68;98858.59;5001723;28;20070;-64
2022/05/08 13:18:51;;;;;;;3.85;1.85;;;;;;;18.01;75.85;98869.63;5021340;28;20108;-64
2022/05/08 13:21:16;;;;;;;4.40;1.95;;;;;;;18.03;76.10;98853.66;5015318;28;20045;-63
2022/05/08 13:23:42;;;;;;;3.78;1.70;;;;;;;18.16;80.26;98855.59;5014943;28;20051;-64
2022/05/08 13:26:07;;;;;;;4.35;1.65;;;;;;;18.24;75.99;98863.41;5009878;28;20449;-64
2022/05/08 13:28:34;;;;;;;3.88;1.55;;;;;;;18.19;74.85;98861.31;5005213;28;20025;-64
2022/05/08 13:31:00;;;;;;;3.45;1.63;;;;;;;18.19;73.08;98855.25;5015372;28;20036;-64
2022/05/08 13:33:25;;;;;;;3.70;1.50;;;;;;;18.29;73.91;98853.13;5016990;28;20033;-64
2022/05/08 13:35:51;;;;;;;3.65;1.38;;;;;;;18.28;72.11;98850.66;4993186;28;20145;-63
2022/05/08 13:38:18;;;;;;;5.38;1.83;;;;;;;18.14;74.89;98853.16;5011345;28;20125;-64
2022/05/08 13:40:44;;;;;;;3.45;1.70;;;;;;;17.95;78.27;98862.50;5017987;28;20048;-63
2022/05/08 13:43:10;;;;;;;3.88;1.80;;;;;;;17.91;78.48;98848.09;4996925;28;20112;-64
2022/05/08 13:45:35;;;;;;;4.20;1.90;;;;;;;17.96;75.02;98856.25;5005882;28;20055;-64
2022/05/08 13:48:00;;;;;;;4.00;1.63;;;;;;;17.91;77.60;98839.38;4998915;28;20510;-63
2022/05/08 13:50:26;;;;;;;3.80;1.80;;;;;;;17.86;75.64;98853.88;4985102;28;20488;-64
2022/05/08 13:52:52;;;;;;;4.40;1.98;;;;;;;17.81;77.61;98810.72;5017436;28;20033;-63
2022/05/08 13:55:17;;;;;;;3.72;1.77;;;;;;;17.61;74.58;98818.38;5013497;28;20316;-63
2022/05/08 13:57:43;;;;;;;3.60;1.60;;;;;;;17.90;76.27;98843.00;4982756;28;20034;-64
2022/05/08 14:00:14;;;;;;;3.90;1.70;;;;;;;17.99;76.72;98849.78;5021475;28;20029;-64
2022/05/08 14:02:43;;;;;;;3.80;1.70;;;;;;;17.81;76.73;98808.06;5015816;28;20049;-64
2022/05/08 14:05:09;;;;;;;3.60;1.58;;;;;;;18.00;74.41;98833.81;5005337;28;20037;-63
2022/05/08 14:07:36;;;;;;;3.90;1.63;;;;;;;18.08;73.96;98839.97;4997945;28;20067;-64
2022/05/08 14:10:07;;;;;;;3.83;1.67;;;;;;;18.10;73.53;98849.28;5004092;28;20034;-63
2022/05/08 14:12:34;;;;;;;4.45;1.60;;;;;;;18.05;73.75;98839.34;5000155;28;20026;-64
2022/05/08 14:14:59;;;;;;;4.30;1.58;;;;;;;18.10;73.47;98849.28;4998525;28;20159;-64
2022/05/08 14:17:24;;;;;;;3.90;1.70;;;;;;;17.97;72.58;98834.19;5017988;28;20507;-64
2022/05/08 14:19:50;;;;;;;4.40;1.63;;;;;;;17.80;72.76;98825.69;5033617;28;20038;-64
2022/05/08 14:22:16;;;;;;;3.75;1.70;;;;;;;17.96;73.05;98844.88;5017237;28;20542;-64
2022/05/08 14:24:42;;;;;;;4.18;1.70;;;;;;;18.00;73.15;98848.78;5002263;28;20036;-64
2022/05/08 14:27:08;;;;;;;3.67;1.58;;;;;;;17.70;75.49;98805.94;5020456;28;20326;-64
2022/05/08 14:29:35;;;;;;;3.65;1.55;;;;;;;17.80;74.11;98846.72;4998280;28;20030;-63
2022/05/08 14:37:28;;;;;;;3.58;1.50;;;;;;;17.61;79.34;98831.53;5002371;28;20483;-63
2022/05/08 14:39:54;;;;;;;3.80;1.63;;;;;;;17.55;79.89;98829.63;5005262;28;20069;-64
2022/05/08 14:42:20;;;;;;;3.83;1.73;;;;;;;17.60;79.14;98825.47;4984955;28;20828;-64
2022/05/08 14:44:46;;;;;;;3.83;1.48;;;;;;;17.79;78.31;98829.31;5010846;28;20076;-64
2022/05/08 14:47:13;;;;;;;4.20;1.70;;;;;;;17.73;77.62;98806.38;4997910;28;20036;-64
2022/05/08 14:49:39;;;;;;;3.63;1.63;;;;;;;17.55;77.27;98796.28;4994520;28;20021;-64
2022/05/08 14:52:05;;;;;;;3.63;1.42;;;;;;;17.92;77.75;98819.97;5005577;28;20080;-64
2022/05/08 14:54:30;;;;;;;2.97;1.10;;;;;;;17.85;75.91;98823.34;4994747;28;20026;-64
2022/05/08 15:17:11;;;;;;;3.13;1.30;;;;;;;17.84;76.89;98824.31;5130487;27;20395;-63
2022/05/08 15:19:37;;;;;;;4.40;2.30;;;;;;;17.83;75.42;98821.84;5104381;28;20089;-63
2022/05/08 15:22:03;;;;;;;5.30;3.00;;;;;;;17.93;74.36;98819.78;5101340;28;20027;-63
2022/05/08 15:24:29;;;;;;;6.13;3.50;;;;;;;18.00;74.40;98830.38;5111884;27;20023;-64
2022/05/08 15:26:54;;;;;;;4.72;2.35;;;;;;;17.76;71.69;98834.13;5077090;28;20073;-64
2022/05/08 15:29:20;;;;;;;4.28;1.75;;;;;;;17.81;72.22;98831.75;5077058;27;20500;-63
2022/05/08 15:31:45;;;;;;;4.93;1.58;;;;;;;17.85;71.42;98839.13;5090205;27;20129;-63
2022/05/08 15:34:12;;;;;;;4.10;1.70;;;;;;;17.73;71.40;98832.69;5093131;27;20062;-63
2022/05/08 15:36:37;;;;;;;3.47;1.30;;;;;;;17.54;71.96;98799.09;5098354;27;20625;-63
2022/05/08 15:39:03;;;;;;;3.60;1.60;;;;;;;17.65;71.85;98828.34;5114282;27;20035;-63
2022/05/08 15:41:29;;;;;;;3.47;1.60;;;;;;;17.68;70.59;98830.59;5077185;27;20024;-63
2022/05/08 15:43:56;;;;;;;3.78;1.50;;;;;;;17.71;70.14;98831.25;5091168;28;20154;-63
2022/05/08 15:46:21;;;;;;;3.58;1.45;;;;;;;17.78;72.26;98835.56;5090775;27;20034;-62
2022/05/08 15:48:47;;;;;;;4.65;1.73;;;;;;;17.83;70.94;98829.75;5120862;27;20032;-63
2022/05/08 15:51:17;;;;;;;3.80;1.60;;;;;;;17.84;69.51;98836.66;5095389;27;20023;-63
2022/05/08 15:53:42;;;;;;;;;;;;;;;17.94;69.22;98837.16;5106790;27;20065;-63
2022/05/08 15:56:07;;;;;;;3.15;1.13;;;;;;;17.82;66.02;98830.75;5097277;28;20337;-63
2022/05/08 15:58:33;;;;;;;3.55;1.17;;;;;;;17.88;65.80;98839.75;5082152;27;20023;-63
2022/05/08 16:00:58;;;;;;;3.53;1.10;;;;;;;17.91;65.54;98831.50;5076632;28;20466;-64
2022/05/08 16:03:24;;;;;;;2.75;1.13;;;;;;;17.93;66.70;98835.56;5096572;27;20028;-63
2022/05/08 16:05:50;;;;;;;3.30;1.10;;;;;;;17.76;67.87;98805.19;5082299;28;20073;-63
2022/05/08 16:08:16;;;;;;;2.35;0.90;;;;;;;17.90;65.33;98820.13;5085786;27;20887;-64
2022/05/08 16:10:42;;;;;;;3.28;1.20;;;;;;;17.95;64.95;98827.47;5100135;27;20035;-60
2022/05/08 16:24:03;;;;;;;3.03;1.20;;;;;;;18.06;67.81;98827.78;5086512;28;20034;-63
2022/05/08 16:26:29;;;;;;;2.85;1.17;;;;;;;17.84;68.56;98789.31;5090710;27;20598;-62
2022/05/08 16:28:55;;;;;;;2.85;1.13;;;;;;;17.96;66.71;98827.31;5076186;28;20236;-63
2022/05/08 16:31:20;;;;;;;2.65;1.00;;;;;;;17.80;66.43;98791.50;5076570;28;20026;-63
2022/05/08 16:33:48;;;;;;;2.90;0.95;;;;;;;18.05;65.19;98820.06;5079435;28;20482;-63
2022/05/08 16:36:15;;;;;;;3.33;1.13;;;;;;;18.08;66.62;98822.34;5086982;28;20027;-63
2022/05/08 16:38:40;;;;;;;2.70;1.02;;;;;;;18.15;65.33;98822.41;5065944;28;20535;-63
2022/05/08 16:41:10;;;;;;;3.55;1.30;;;;;;;18.17;67.04;98826.47;5062583;28;20062;-63
2022/05/08 16:43:35;;;;;;;3.47;1.30;;;;;;;18.30;67.68;98822.34;5097540;27;20031;-63
2022/05/08 16:46:01;;;;;;;3.13;1.10;;;;;;;18.29;67.80;98818.91;5092555;27;20060;-63
2022/05/08 16:48:26;;;;;;;3.80;1.30;;;;;;;18.14;68.70;98794.47;5087698;28;20027;-63
2022/05/08 16:50:52;;;;;;;3.50;1.40;;;;;;;18.24;69.39;98822.09;5100601;28;20027;-63
2022/05/08 16:53:17;;;;;;;2.95;1.10;;;;;;;17.99;68.72;98782.19;5083974;28;20105;-62
2022/05/08 16:55:45;;;;;;;2.53;0.90;;;;;;;18.22;69.26;98825.94;5079564;27;20465;-63
2022/05/08 16:58:11;;;;;;;4.10;1.52;;;;;;;18.27;69.93;98820.06;5073669;28;20028;-63
